createdAt,value
2022-09-09T00:02:22.876Z,11.57
2022-09-09T00:05:05.751Z,13.10
2022-09-09T00:07:49.474Z,13.60
2022-09-09T00:10:43.019Z,9.68
2022-09-09T00:13:47.884Z,11.00
2022-09-09T00:16:25.260Z,12.50
2022-09-09T00:19:26.001Z,11.45
2022-09-09T00:22:18.651Z,12.18
2022-09-09T00:24:57.840Z,11.30
2022-09-09T00:27:40.912Z,8.73
2022-09-09T00:30:21.518Z,13.30
2022-09-09T00:33:03.919Z,13.60
2022-09-09T00:35:35.844Z,9.73
2022-09-09T00:38:16.192Z,11.88
2022-09-09T00:40:54.019Z,15.10
2022-09-09T00:43:41.652Z,12.20
2022-09-09T00:46:51.782Z,14.18
2022-09-09T00:49:46.939Z,12.25
2022-09-09T00:52:53.563Z,11.55
2022-09-09T00:55:38.451Z,12.52
2022-09-09T00:58:09.464Z,11.90
2022-09-09T01:00:46.442Z,13.10
2022-09-09T01:03:25.572Z,13.38
2022-09-09T01:06:38.040Z,19.15
2022-09-09T01:09:28.112Z,12.48
2022-09-09T01:12:13.685Z,13.88
2022-09-09T01:17:25.530Z,14.23
2022-09-09T01:20:14.798Z,8.90
2022-09-09T01:23:09.321Z,9.75
2022-09-09T01:25:45.049Z,13.45
2022-09-09T01:28:20.461Z,12.57
2022-09-09T01:30:47.287Z,14.98
2022-09-09T01:33:19.221Z,18.23
2022-09-09T01:36:07.828Z,14.63
2022-09-09T01:38:36.351Z,14.57
2022-09-09T01:41:04.402Z,13.75
2022-09-09T01:43:31.564Z,12.90
2022-09-09T01:46:03.300Z,15.43
2022-09-09T01:48:31.567Z,13.30
2022-09-09T01:50:58.662Z,14.27
2022-09-09T01:53:25.857Z,14.43
2022-09-09T01:56:01.609Z,20.05
2022-09-09T01:58:40.505Z,17.98
2022-09-09T02:01:29.513Z,18.75
2022-09-09T02:03:59.163Z,22.10
2022-09-09T02:06:26.295Z,21.58
2022-09-09T02:09:03.619Z,18.73
2022-09-09T02:11:32.414Z,17.42
2022-09-09T02:14:29.779Z,12.48
2022-09-09T02:17:23.595Z,18.85
2022-09-09T02:20:01.245Z,15.38
2022-09-09T02:22:31.883Z,18.88
2022-09-09T02:25:01.090Z,22.85
2022-09-09T02:27:29.176Z,20.80
2022-09-09T02:29:58.573Z,21.35
2022-09-09T02:32:26.591Z,20.50
2022-09-09T02:35:05.451Z,21.60
2022-09-09T02:37:40.737Z,19.50
2022-09-09T02:40:11.792Z,23.10
2022-09-09T02:42:48.076Z,20.80
2022-09-09T02:45:21.355Z,24.52
2022-09-09T02:48:31.048Z,23.35
2022-09-09T02:51:32.275Z,22.95
2022-09-09T02:54:25.453Z,22.75
2022-09-09T02:56:57.359Z,19.48
2022-09-09T02:59:26.517Z,19.17
2022-09-09T03:01:54.705Z,21.95
2022-09-09T03:04:21.733Z,22.63
2022-09-09T03:06:48.644Z,21.08
2022-09-09T03:09:15.389Z,21.20
2022-09-09T03:11:42.283Z,27.80
2022-09-09T03:14:09.583Z,20.60
2022-09-09T03:16:36.411Z,26.02
2022-09-09T03:19:03.274Z,26.20
2022-09-09T03:21:30.764Z,29.55
2022-09-09T03:23:58.422Z,30.67
2022-09-09T03:26:25.639Z,25.25
2022-09-09T03:28:53.000Z,29.40
2022-09-09T03:31:20.746Z,30.70
2022-09-09T03:33:47.623Z,28.10
2022-09-09T03:36:16.043Z,25.17
2022-09-09T03:38:43.035Z,26.63
2022-09-09T03:41:09.878Z,35.10
2022-09-09T03:43:37.634Z,29.10
2022-09-09T03:46:04.590Z,27.95
2022-09-09T03:48:31.423Z,28.58
2022-09-09T03:51:01.911Z,33.97
2022-09-09T03:53:29.957Z,25.70
2022-09-09T03:56:01.063Z,32.65
2022-09-09T03:58:29.150Z,29.52
2022-09-09T04:00:59.373Z,27.10
2022-09-09T04:03:28.210Z,28.80
2022-09-09T04:05:58.117Z,24.25
2022-09-09T04:08:28.043Z,31.33
2022-09-09T04:10:59.555Z,26.77
2022-09-09T04:13:27.620Z,29.58
2022-09-09T04:16:00.386Z,23.75
2022-09-09T04:18:29.403Z,28.73
2022-09-09T04:20:58.478Z,28.63
2022-09-09T04:23:29.964Z,29.23
2022-09-09T04:25:58.924Z,30.05
2022-09-09T04:28:30.787Z,23.75
2022-09-09T04:30:58.088Z,25.85
2022-09-09T04:33:28.672Z,31.50
2022-09-09T04:35:55.715Z,32.90
2022-09-09T04:38:24.130Z,26.75
2022-09-09T04:40:53.206Z,27.65
2022-09-09T04:43:20.137Z,28.83
2022-09-09T04:45:49.607Z,30.15
2022-09-09T04:48:16.882Z,26.98
2022-09-09T04:50:43.639Z,32.55
2022-09-09T04:53:11.336Z,30.52
2022-09-09T04:55:38.759Z,35.05
2022-09-09T04:58:09.722Z,34.33
2022-09-09T05:00:37.798Z,34.45
2022-09-09T05:03:09.941Z,29.73
2022-09-09T05:05:37.417Z,29.73
2022-09-09T05:08:06.561Z,37.28
2022-09-09T05:10:34.667Z,31.55
2022-09-09T05:13:01.532Z,37.53
2022-09-09T05:15:28.355Z,36.00
2022-09-09T05:18:02.192Z,39.72
2022-09-09T05:20:29.496Z,39.25
2022-09-09T05:22:57.997Z,45.70
2022-09-09T05:25:27.159Z,42.83
2022-09-09T05:27:54.890Z,37.00
2022-09-09T05:30:25.910Z,38.05
2022-09-09T05:32:52.735Z,36.85
2022-09-09T05:35:20.331Z,37.47
2022-09-09T05:37:47.244Z,41.53
2022-09-09T05:40:14.215Z,33.40
2022-09-09T05:42:42.046Z,31.58
2022-09-09T05:45:10.311Z,41.20
2022-09-09T05:47:38.486Z,36.90
2022-09-09T05:50:06.222Z,36.80
2022-09-09T05:52:33.787Z,40.67
2022-09-09T05:55:01.140Z,41.50
2022-09-09T05:57:28.091Z,34.92
2022-09-09T05:59:54.886Z,31.98
2022-09-09T06:02:22.016Z,37.47
2022-09-09T06:04:48.894Z,35.72
2022-09-09T06:07:15.925Z,34.50
2022-09-09T06:09:42.747Z,38.70
2022-09-09T06:12:10.160Z,35.85
2022-09-09T06:14:38.119Z,33.83
2022-09-09T06:17:05.064Z,29.13
2022-09-09T06:19:32.064Z,32.58
2022-09-09T06:21:59.721Z,36.92
2022-09-09T06:24:27.141Z,36.70
2022-09-09T06:26:55.332Z,35.65
2022-09-09T06:29:22.201Z,39.08
2022-09-09T06:31:49.010Z,42.58
2022-09-09T06:34:16.375Z,37.95
2022-09-09T06:36:43.658Z,34.92
2022-09-09T06:39:14.831Z,41.80
2022-09-09T06:41:43.919Z,35.15
2022-09-09T06:44:13.020Z,43.78
2022-09-09T06:46:41.066Z,39.92
2022-09-09T06:49:10.241Z,35.30
2022-09-09T06:51:44.039Z,41.92
2022-09-09T06:54:12.830Z,39.63
2022-09-09T06:56:43.008Z,39.17
2022-09-09T06:59:11.161Z,35.88
2022-09-09T07:01:50.283Z,44.08
2022-09-09T07:04:19.434Z,38.17
2022-09-09T07:06:47.573Z,44.58
2022-09-09T07:09:17.377Z,43.92
2022-09-09T07:11:48.474Z,41.83
2022-09-09T07:14:16.128Z,40.03
2022-09-09T07:16:44.731Z,43.38
2022-09-09T07:19:13.726Z,45.70
2022-09-09T07:21:43.567Z,45.15
2022-09-09T07:24:11.858Z,40.97
2022-09-09T07:26:40.469Z,42.53
2022-09-09T07:29:09.243Z,40.55
2022-09-09T07:31:39.799Z,41.75
2022-09-09T07:34:07.132Z,47.22
2022-09-09T07:36:39.027Z,47.08
2022-09-09T07:39:12.364Z,41.47
2022-09-09T07:41:41.759Z,41.83
2022-09-09T07:44:12.274Z,36.70
2022-09-09T07:46:42.975Z,34.78
2022-09-09T07:49:11.858Z,38.70
2022-09-09T07:51:45.642Z,42.50
2022-09-09T07:54:15.893Z,38.13
2022-09-09T07:56:43.720Z,34.08
2022-09-09T07:59:11.413Z,38.28
2022-09-09T08:01:44.739Z,36.28
2022-09-09T08:04:18.279Z,36.53
2022-09-09T08:06:54.036Z,34.55
2022-09-09T08:09:21.999Z,34.83
2022-09-09T08:11:49.244Z,35.78
2022-09-09T08:14:16.315Z,36.03
2022-09-09T08:16:47.667Z,41.88
2022-09-09T08:19:16.345Z,34.85
2022-09-09T08:21:45.063Z,35.53
2022-09-09T08:24:13.076Z,37.10
2022-09-09T08:26:43.509Z,36.40
2022-09-09T08:29:12.832Z,30.33
2022-09-09T08:31:49.113Z,32.20
2022-09-09T08:34:16.468Z,36.78
2022-09-09T08:36:46.102Z,33.75
2022-09-09T08:39:16.665Z,34.70
2022-09-09T08:42:03.501Z,31.70
2022-09-09T08:44:48.836Z,33.95
2022-09-09T08:48:12.427Z,32.10
2022-09-09T08:50:41.990Z,40.95
2022-09-09T08:53:25.823Z,36.67
2022-09-09T08:56:02.654Z,29.98
2022-09-09T08:58:35.152Z,29.42
2022-09-09T09:01:11.297Z,32.25
2022-09-09T09:03:59.217Z,29.23
2022-09-09T09:07:08.575Z,31.33
2022-09-09T09:09:50.855Z,29.27
2022-09-09T09:12:25.090Z,30.95
2022-09-09T09:14:52.107Z,30.33
2022-09-09T09:17:21.866Z,33.75
2022-09-09T09:19:50.916Z,28.17
2022-09-09T09:22:35.307Z,31.67
2022-09-09T09:25:24.481Z,30.38
2022-09-09T09:27:54.047Z,34.92
2022-09-09T09:30:30.061Z,30.67
2022-09-09T09:33:16.634Z,27.02
2022-09-09T09:35:44.741Z,27.00
2022-09-09T09:41:11.706Z,26.10
2022-09-09T09:43:43.752Z,27.75
2022-09-09T09:46:26.952Z,28.50
2022-09-09T09:49:07.105Z,26.10
2022-09-09T09:51:35.181Z,25.85
2022-09-09T09:54:14.462Z,25.23
2022-09-09T09:56:42.219Z,24.95
2022-09-09T09:59:38.710Z,25.02
2022-09-09T10:02:26.592Z,26.58
2022-09-09T10:05:18.097Z,30.08
2022-09-09T10:07:49.138Z,22.85
2022-09-09T10:10:36.427Z,25.33
2022-09-09T10:13:56.259Z,18.15
2022-09-09T10:16:56.770Z,23.40
2022-09-09T10:19:38.563Z,28.73
2022-09-09T10:22:28.999Z,27.73
2022-09-09T10:25:13.818Z,23.98
2022-09-09T10:28:26.817Z,28.95
2022-09-09T10:31:18.706Z,27.50
2022-09-09T10:34:19.268Z,29.42
2022-09-09T10:36:50.610Z,27.50
2022-09-09T10:39:40.690Z,24.15
2022-09-09T10:42:20.542Z,24.25
2022-09-09T10:45:15.302Z,26.27
2022-09-09T10:48:04.003Z,30.52
2022-09-09T10:54:07.076Z,24.67
2022-09-09T10:56:35.350Z,26.23
2022-09-09T10:59:10.303Z,25.70
2022-09-09T11:02:29.231Z,27.95
2022-09-09T11:05:21.629Z,24.27
2022-09-09T11:08:13.773Z,27.23
2022-09-09T11:11:13.055Z,24.58
2022-09-09T11:14:02.933Z,25.27
2022-09-09T11:16:53.637Z,23.83
2022-09-09T11:19:33.243Z,26.73
2022-09-09T11:22:02.510Z,22.63
2022-09-09T11:25:21.900Z,21.20
2022-09-09T11:28:18.930Z,20.95
2022-09-09T11:31:29.545Z,23.30
2022-09-09T11:34:17.484Z,27.52
2022-09-09T11:37:33.834Z,21.98
2022-09-09T11:40:24.708Z,22.88
2022-09-09T11:43:06.482Z,23.23
2022-09-09T11:45:36.582Z,18.60
2022-09-09T11:48:07.115Z,17.77
2022-09-09T11:50:37.926Z,22.08
2022-09-09T11:53:24.074Z,18.83
2022-09-09T11:56:15.695Z,16.70
2022-09-09T11:59:04.829Z,19.60
2022-09-09T12:01:35.721Z,19.33
2022-09-09T12:04:21.308Z,17.92
2022-09-09T12:06:57.647Z,14.55
2022-09-09T12:09:34.719Z,18.10
2022-09-09T12:12:14.258Z,16.75
2022-09-09T12:14:46.614Z,12.38
2022-09-09T12:17:16.381Z,15.23
2022-09-09T12:19:43.391Z,16.38
2022-09-09T12:22:40.845Z,12.45
2022-09-09T12:26:02.090Z,15.75
2022-09-09T12:28:58.335Z,13.13
2022-09-09T12:31:48.129Z,13.98
2022-09-09T12:34:34.786Z,14.07
2022-09-09T12:37:20.375Z,14.88
2022-09-09T12:39:56.708Z,13.30
2022-09-09T12:42:24.708Z,15.57
2022-09-09T12:44:59.758Z,19.75
2022-09-09T12:50:29.107Z,14.38
2022-09-09T12:52:59.931Z,15.02
2022-09-09T12:55:34.875Z,13.32
2022-09-09T12:58:05.891Z,13.70
2022-09-09T13:00:34.915Z,12.55
2022-09-09T13:03:18.200Z,12.95
2022-09-09T13:05:44.972Z,11.30
2022-09-09T13:08:14.788Z,10.35
2022-09-09T13:10:53.795Z,12.35
2022-09-09T13:13:31.012Z,13.82
2022-09-09T13:16:00.767Z,11.02
2022-09-09T13:18:32.225Z,12.00
2022-09-09T13:20:59.432Z,12.13
2022-09-09T13:23:36.323Z,14.10
2022-09-09T13:26:08.894Z,10.73
2022-09-09T13:28:39.260Z,10.35
2022-09-09T13:31:25.092Z,12.55
2022-09-09T13:33:54.234Z,13.93
2022-09-09T13:36:32.085Z,12.38
2022-09-09T13:39:01.263Z,10.35
2022-09-09T13:41:36.114Z,12.98
2022-09-09T13:44:05.221Z,13.40
2022-09-09T13:46:42.261Z,14.93
2022-09-09T13:49:11.924Z,12.63
2022-09-09T13:51:40.827Z,13.18
2022-09-09T13:54:11.542Z,13.55
2022-09-09T13:56:41.142Z,15.00
2022-09-09T13:59:14.249Z,14.30
2022-09-09T14:01:41.127Z,12.20
2022-09-09T14:04:09.780Z,11.45
2022-09-09T14:06:40.377Z,13.45
2022-09-09T14:09:16.783Z,15.27
2022-09-09T14:11:45.295Z,24.33
2022-09-09T14:14:12.295Z,14.35
2022-09-09T14:16:39.113Z,12.82
2022-09-09T14:19:06.054Z,6.07
2022-09-09T14:21:33.745Z,8.40
2022-09-09T14:24:00.533Z,7.05
2022-09-09T14:26:27.490Z,8.15
2022-09-09T14:28:56.027Z,7.90
2022-09-09T14:31:25.223Z,5.85
2022-09-09T14:33:53.768Z,7.88
2022-09-09T14:36:20.968Z,8.63
2022-09-09T14:38:48.368Z,5.63
2022-09-09T14:41:18.202Z,11.88
2022-09-09T14:43:46.291Z,7.28
2022-09-09T14:46:18.018Z,7.20
2022-09-09T14:48:46.423Z,7.80
2022-09-09T14:51:20.881Z,7.38
2022-09-09T14:53:48.243Z,8.43
2022-09-09T14:56:21.330Z,11.32
2022-09-09T14:58:51.752Z,8.32
2022-09-09T15:01:21.635Z,7.65
2022-09-09T15:03:55.448Z,11.27
2022-09-09T15:06:24.291Z,10.55
2022-09-09T15:08:53.868Z,9.73
2022-09-09T15:11:22.198Z,9.80
2022-09-09T15:13:53.257Z,11.98
2022-09-09T15:16:21.713Z,8.77
2022-09-09T15:18:54.268Z,9.90
2022-09-09T15:21:24.197Z,10.77
2022-09-09T15:23:51.054Z,4.78
2022-09-09T15:26:18.970Z,7.43
2022-09-09T15:28:48.455Z,7.25
2022-09-09T15:31:27.968Z,7.20
2022-09-09T15:34:04.502Z,5.63
2022-09-09T15:36:42.305Z,8.20
2022-09-09T15:39:13.995Z,4.60
2022-09-09T15:41:41.239Z,5.13
2022-09-09T15:44:08.447Z,9.07
2022-09-09T15:46:44.818Z,7.97
2022-09-09T15:49:19.417Z,8.00
2022-09-09T15:51:48.886Z,7.35
2022-09-09T15:54:19.573Z,7.88
2022-09-09T15:56:49.868Z,7.25
2022-09-09T15:59:17.229Z,7.40
2022-09-09T16:01:45.168Z,7.82
2022-09-09T16:04:12.811Z,11.05
2022-09-09T16:06:40.346Z,9.25
2022-09-09T16:09:08.971Z,6.93
2022-09-09T16:11:39.077Z,8.48
2022-09-09T16:14:07.794Z,7.32
2022-09-09T16:16:36.362Z,8.15
2022-09-09T16:19:14.081Z,7.47
2022-09-09T16:21:50.264Z,6.55
2022-09-09T16:24:20.612Z,10.95
2022-09-09T16:26:53.963Z,7.90
2022-09-09T16:29:22.876Z,6.47
2022-09-09T16:31:51.617Z,6.05
2022-09-09T16:34:19.838Z,7.60
2022-09-09T16:36:48.291Z,7.05
2022-09-09T16:39:24.188Z,5.50
2022-09-09T16:41:51.208Z,10.85
2022-09-09T16:44:19.909Z,13.50
2022-09-09T16:46:49.919Z,8.32
2022-09-09T16:49:17.404Z,7.55
2022-09-09T16:51:48.181Z,12.38
2022-09-09T16:54:18.241Z,10.13
2022-09-09T16:56:47.769Z,10.98
2022-09-09T16:59:19.863Z,7.38
2022-09-09T17:01:50.568Z,6.38
2022-09-09T17:04:25.385Z,6.32
2022-09-09T17:06:54.928Z,8.48
2022-09-09T17:09:23.920Z,1.85
2022-09-09T17:11:53.465Z,3.30
2022-09-09T17:14:22.504Z,2.78
2022-09-09T17:16:50.314Z,1.88
2022-09-09T17:19:17.686Z,6.22
2022-09-09T17:22:12.517Z,5.03
2022-09-09T17:24:32.120Z,4.57
2022-09-09T17:26:58.990Z,5.05
2022-09-09T17:29:26.443Z,2.08
2022-09-09T17:31:53.940Z,1.70
2022-09-09T17:34:20.851Z,3.05
2022-09-09T17:36:48.162Z,1.67
2022-09-09T17:39:15.110Z,1.92
2022-09-09T17:41:42.176Z,1.15
2022-09-09T17:44:10.905Z,1.92
2022-09-09T17:46:43.571Z,2.13
2022-09-09T17:49:14.656Z,2.35
2022-09-09T17:51:43.081Z,1.90
2022-09-09T17:54:14.245Z,2.08
2022-09-09T17:56:42.427Z,5.88
2022-09-09T17:59:12.301Z,3.33
2022-09-09T18:01:42.179Z,2.72
2022-09-09T18:04:11.579Z,2.22
2022-09-09T18:06:44.792Z,3.47
2022-09-09T18:09:16.715Z,3.17
2022-09-09T18:11:47.845Z,3.45
2022-09-09T18:14:18.816Z,3.58
2022-09-09T18:16:47.211Z,4.45
2022-09-09T18:19:19.590Z,2.20
2022-09-09T18:21:47.330Z,3.05
2022-09-09T18:24:18.637Z,3.35
2022-09-09T18:26:45.999Z,4.28
2022-09-09T18:29:18.388Z,3.95
2022-09-09T18:31:45.172Z,5.53
2022-09-09T18:34:14.860Z,4.00
2022-09-09T18:36:45.091Z,2.47
2022-09-09T18:39:15.305Z,4.78
2022-09-09T18:41:46.785Z,3.78
2022-09-09T18:44:18.024Z,6.30
2022-09-09T18:46:45.552Z,10.38
2022-09-09T18:49:15.389Z,7.50
2022-09-09T18:51:45.279Z,11.90
2022-09-09T18:54:34.448Z,11.60
2022-09-09T18:57:01.992Z,5.43
2022-09-09T18:59:29.399Z,4.72
2022-09-09T19:01:56.682Z,4.80
2022-09-09T19:04:25.446Z,4.93
2022-09-09T19:06:58.250Z,3.15
2022-09-09T19:09:33.914Z,2.92
2022-09-09T19:12:02.216Z,8.05
2022-09-09T19:14:30.163Z,3.13
2022-09-09T19:16:57.131Z,4.57
2022-09-09T19:19:32.183Z,3.95
2022-09-09T19:24:32.029Z,4.25
2022-09-09T19:27:04.539Z,5.78
2022-09-09T19:29:35.031Z,4.82
2022-09-09T19:32:42.750Z,3.60
2022-09-09T19:34:51.731Z,3.42
2022-09-09T19:37:19.046Z,5.38
2022-09-09T19:39:47.504Z,4.68
2022-09-09T19:42:14.687Z,6.60
2022-09-09T19:44:41.723Z,3.50
2022-09-09T19:47:08.565Z,4.75
2022-09-09T19:49:37.330Z,4.03
2022-09-09T19:52:04.880Z,9.10
2022-09-09T19:54:32.245Z,7.53
2022-09-09T19:57:00.073Z,6.30
2022-09-09T19:59:27.746Z,6.63
2022-09-09T20:01:56.976Z,5.80
2022-09-09T20:04:24.220Z,4.53
2022-09-09T20:06:52.247Z,4.93
2022-09-09T20:09:20.557Z,6.72
2022-09-09T20:11:49.060Z,6.13
2022-09-09T20:14:17.229Z,5.38
2022-09-09T20:16:45.863Z,12.52
2022-09-09T20:19:16.334Z,7.38
2022-09-09T20:21:49.660Z,6.28
2022-09-09T20:24:23.278Z,7.18
2022-09-09T20:26:51.297Z,8.25
2022-09-09T20:29:20.031Z,4.85
2022-09-09T20:31:48.351Z,7.53
2022-09-09T20:34:19.226Z,7.35
2022-09-09T20:36:47.236Z,5.15
2022-09-09T20:39:17.400Z,7.15
2022-09-09T20:41:46.240Z,8.82
2022-09-09T20:44:17.015Z,9.48
2022-09-09T20:46:50.640Z,9.25
2022-09-09T20:49:20.799Z,11.90
2022-09-09T20:51:50.573Z,8.73
2022-09-09T20:54:23.916Z,8.43
2022-09-09T20:56:53.355Z,7.97
2022-09-09T20:59:29.156Z,6.82
2022-09-09T21:01:57.235Z,9.40
2022-09-09T21:04:25.261Z,9.40
2022-09-09T21:06:52.844Z,7.47
2022-09-09T21:09:23.311Z,11.43
2022-09-09T21:11:50.983Z,8.30
2022-09-09T21:14:17.840Z,7.97
2022-09-09T21:16:44.904Z,8.55
2022-09-09T21:19:12.345Z,7.40
2022-09-09T21:21:39.359Z,6.13
2022-09-09T21:24:06.568Z,6.30
2022-09-09T21:26:33.392Z,8.18
2022-09-09T21:29:00.179Z,8.48
2022-09-09T21:31:28.662Z,9.13
2022-09-09T21:33:57.764Z,9.15
2022-09-09T21:36:25.528Z,8.15
2022-09-09T21:38:52.314Z,8.43
2022-09-09T21:41:19.593Z,7.55
2022-09-09T21:43:52.801Z,6.68
2022-09-09T21:46:20.135Z,4.22
2022-09-09T21:48:46.975Z,6.15
2022-09-09T21:51:17.035Z,6.63
2022-09-09T21:53:44.829Z,6.05
2022-09-09T21:56:16.227Z,6.10
2022-09-09T21:58:43.556Z,7.05
2022-09-09T22:01:14.893Z,6.07
2022-09-09T22:03:42.836Z,8.38
2022-09-09T22:06:14.833Z,6.22
2022-09-09T22:08:42.823Z,9.48
2022-09-09T22:11:22.673Z,7.78
2022-09-09T22:13:49.915Z,6.20
2022-09-09T22:16:20.901Z,6.63
2022-09-09T22:18:58.138Z,7.93
2022-09-09T22:21:27.301Z,9.35
2022-09-09T22:24:01.682Z,8.23
2022-09-09T22:26:32.924Z,9.68
2022-09-09T22:28:59.772Z,5.78
2022-09-09T22:31:28.588Z,9.68
2022-09-09T22:33:56.069Z,7.63
2022-09-09T22:36:23.348Z,8.00
2022-09-09T22:38:53.875Z,6.43
2022-09-09T22:41:21.117Z,8.57
2022-09-09T22:43:48.402Z,5.60
2022-09-09T22:46:15.593Z,7.05
2022-09-09T22:48:43.364Z,6.00
2022-09-09T22:51:14.236Z,9.57
2022-09-09T22:53:43.242Z,7.68
2022-09-09T22:56:18.572Z,5.93
2022-09-09T22:58:47.191Z,12.40
2022-09-09T23:01:19.468Z,7.32
2022-09-09T23:03:47.760Z,8.73
2022-09-09T23:06:24.936Z,10.00
2022-09-09T23:08:58.482Z,9.75
2022-09-09T23:11:30.538Z,12.00
2022-09-09T23:14:00.974Z,9.65
2022-09-09T23:16:38.477Z,10.02
2022-09-09T23:19:10.199Z,11.27
2022-09-09T23:21:39.314Z,10.48
2022-09-09T23:24:08.671Z,14.27
2022-09-09T23:26:35.461Z,9.38
2022-09-09T23:29:02.616Z,13.32
2022-09-09T23:31:33.864Z,9.48
2022-09-09T23:34:01.989Z,10.95
2022-09-09T23:36:30.221Z,12.50
2022-09-09T23:38:59.263Z,13.30
2022-09-09T23:41:27.148Z,11.30
2022-09-09T23:43:54.559Z,10.00
2022-09-09T23:46:28.692Z,17.65
2022-09-09T23:48:57.628Z,12.17
2022-09-09T23:51:28.274Z,9.65
2022-09-09T23:53:57.660Z,8.57
2022-09-09T23:56:31.915Z,7.82
2022-09-09T23:58:58.825Z,12.43
